createdAt,value
2019-05-30T00:00:28.835Z,100527.16
2019-05-30T00:03:00.823Z,100533.14
2019-05-30T00:05:32.722Z,100537.52
2019-05-30T00:08:04.878Z,100538.58
2019-05-30T00:10:37.693Z,100530.79
2019-05-30T00:13:09.481Z,100532.33
2019-05-30T00:15:42.639Z,100535.38
2019-05-30T00:18:16.212Z,100534.33
2019-05-30T00:20:52.559Z,100537.58
2019-05-30T00:23:31.131Z,100537.02
2019-05-30T00:26:07.575Z,100528.50
2019-05-30T00:28:46.888Z,100529.47
2019-05-30T00:31:42.590Z,100532.50
2019-05-30T00:34:25.249Z,100527.33
2019-05-30T00:36:59.751Z,100523.67
2019-05-30T00:39:32.035Z,100529.28
2019-05-30T00:42:04.206Z,100524.30
2019-05-30T00:44:36.198Z,100531.73
2019-05-30T00:47:07.989Z,100530.66
2019-05-30T00:49:40.138Z,100523.85
2019-05-30T00:52:12.878Z,100521.61
2019-05-30T00:54:44.767Z,100517.50
2019-05-30T00:57:16.582Z,100520.04
2019-05-30T00:59:49.327Z,100526.29
2019-05-30T01:02:21.190Z,100523.48
2019-05-30T01:04:53.206Z,100525.86
2019-05-30T01:07:24.934Z,100531.22
2019-05-30T01:09:56.840Z,100526.81
2019-05-30T01:12:28.604Z,100532.47
2019-05-30T01:15:01.469Z,100529.09
2019-05-30T01:17:36.634Z,100521.94
2019-05-30T01:20:08.610Z,100525.05
2019-05-30T01:22:40.415Z,100525.56
2019-05-30T01:25:14.974Z,100520.00
2019-05-30T01:27:47.136Z,100520.69
2019-05-30T01:30:19.941Z,100525.48
2019-05-30T01:32:52.140Z,100520.95
2019-05-30T01:35:24.011Z,100525.08
2019-05-30T01:37:56.114Z,100525.34
2019-05-30T01:40:28.036Z,100524.70
2019-05-30T01:42:59.950Z,100529.09
2019-05-30T01:45:33.170Z,100530.05
2019-05-30T01:48:06.713Z,100527.67
2019-05-30T01:50:38.692Z,100525.68
2019-05-30T01:53:11.166Z,100527.38
2019-05-30T01:55:42.993Z,100524.78
2019-05-30T01:58:14.924Z,100523.01
2019-05-30T02:00:46.768Z,100525.68
2019-05-30T02:03:18.607Z,100524.42
2019-05-30T02:05:50.474Z,100520.53
2019-05-30T02:08:25.221Z,100514.13
2019-05-30T02:10:59.205Z,100520.59
2019-05-30T02:13:32.475Z,100519.27
2019-05-30T02:16:05.995Z,100523.41
2019-05-30T02:18:37.854Z,100525.16
2019-05-30T02:21:10.064Z,100525.55
2019-05-30T02:23:41.961Z,100528.73
2019-05-30T02:26:13.835Z,100522.16
2019-05-30T02:28:45.585Z,100525.32
2019-05-30T02:31:37.314Z,100522.03
2019-05-30T02:33:50.825Z,100520.02
2019-05-30T02:36:22.561Z,100526.42
2019-05-30T02:38:56.313Z,100522.30
2019-05-30T02:41:28.041Z,100528.38
2019-05-30T02:44:01.207Z,100522.56
2019-05-30T02:46:33.377Z,100523.88
2019-05-30T02:49:07.238Z,100528.08
2019-05-30T02:51:38.638Z,100532.18
2019-05-30T02:54:11.523Z,100529.78
2019-05-30T02:56:44.263Z,100533.67
2019-05-30T02:59:16.054Z,100531.44
2019-05-30T03:02:00.964Z,100532.97
2019-05-30T03:04:22.654Z,100529.44
2019-05-30T03:06:56.234Z,100536.58
2019-05-30T03:09:28.363Z,100533.44
2019-05-30T03:12:01.886Z,100545.05
2019-05-30T03:14:33.730Z,100534.84
2019-05-30T03:17:07.829Z,100537.16
2019-05-30T03:19:39.566Z,100541.27
2019-05-30T03:22:13.787Z,100540.08
2019-05-30T03:24:44.945Z,100546.35
2019-05-30T03:27:16.737Z,100539.04
2019-05-30T03:29:48.510Z,100538.97
2019-05-30T03:34:55.589Z,100543.91
2019-05-30T03:37:29.832Z,100543.04
2019-05-30T03:40:00.970Z,100544.61
2019-05-30T03:42:33.267Z,100541.27
2019-05-30T03:45:06.392Z,100543.03
2019-05-30T03:47:42.121Z,100546.39
2019-05-30T03:50:17.685Z,100545.25
2019-05-30T03:52:49.076Z,100547.98
2019-05-30T03:55:21.087Z,100549.82
2019-05-30T03:57:58.878Z,100540.66
2019-05-30T04:00:42.898Z,100549.28
2019-05-30T04:03:21.822Z,100538.10
2019-05-30T04:05:57.054Z,100548.11
2019-05-30T04:08:29.183Z,100553.99
2019-05-30T04:11:01.593Z,100552.23
2019-05-30T04:13:48.466Z,100553.16
2019-05-30T04:16:20.549Z,100552.14
2019-05-30T04:18:52.822Z,100557.67
2019-05-30T04:21:25.971Z,100556.69
2019-05-30T04:23:59.447Z,100563.01
2019-05-30T04:26:31.171Z,100556.42
2019-05-30T04:29:02.902Z,100556.46
2019-05-30T04:31:35.901Z,100558.81
2019-05-30T04:34:08.409Z,100561.72
2019-05-30T04:36:40.602Z,100566.34
2019-05-30T04:39:15.043Z,100569.12
2019-05-30T04:41:46.858Z,100571.02
2019-05-30T04:44:20.367Z,100571.59
2019-05-30T04:46:52.409Z,100578.50
2019-05-30T04:49:25.832Z,100581.39
2019-05-30T04:51:57.563Z,100575.48
2019-05-30T04:54:29.405Z,100581.12
2019-05-30T04:57:01.214Z,100580.09
2019-05-30T04:59:33.015Z,100583.52
2019-05-30T05:02:05.055Z,100588.69
2019-05-30T05:04:40.114Z,100590.58
2019-05-30T05:07:11.839Z,100593.80
2019-05-30T05:09:47.954Z,100594.58
2019-05-30T05:12:20.373Z,100599.53
2019-05-30T05:14:53.200Z,100594.77
2019-05-30T05:17:25.022Z,100603.61
2019-05-30T05:19:56.728Z,100605.19
2019-05-30T05:22:28.520Z,100607.38
2019-05-30T05:25:02.021Z,100604.41
2019-05-30T05:27:33.752Z,100604.24
2019-05-30T05:30:05.889Z,100604.52
2019-05-30T05:32:39.420Z,100616.59
2019-05-30T05:35:11.192Z,100611.13
2019-05-30T05:37:42.945Z,100607.23
2019-05-30T05:40:16.078Z,100612.54
2019-05-30T05:42:47.878Z,100603.61
2019-05-30T05:45:20.549Z,100615.11
2019-05-30T05:47:52.877Z,100618.19
2019-05-30T05:50:24.734Z,100620.64
2019-05-30T05:52:56.462Z,100621.90
2019-05-30T05:55:29.135Z,100624.14
2019-05-30T05:58:04.155Z,100620.89
2019-05-30T06:00:34.508Z,100621.80
2019-05-30T06:03:06.195Z,100620.56
2019-05-30T06:05:52.218Z,100628.44
2019-05-30T06:08:11.856Z,100622.45
2019-05-30T06:10:44.284Z,100617.95
2019-05-30T06:13:16.595Z,100618.20
2019-05-30T06:15:49.111Z,100624.80
2019-05-30T06:18:24.300Z,100614.59
2019-05-30T06:20:56.817Z,100623.09
2019-05-30T06:23:28.561Z,100617.59
2019-05-30T06:26:00.278Z,100619.77
2019-05-30T06:28:32.120Z,100632.91
2019-05-30T06:31:04.819Z,100625.34
2019-05-30T06:33:36.685Z,100629.36
2019-05-30T06:36:10.235Z,100626.08
2019-05-30T06:38:43.343Z,100628.17
2019-05-30T06:41:16.787Z,100632.67
2019-05-30T06:43:48.708Z,100633.33
2019-05-30T06:46:20.429Z,100624.06
2019-05-30T06:48:52.198Z,100626.25
2019-05-30T06:51:26.883Z,100632.89
2019-05-30T06:54:00.914Z,100634.81
2019-05-30T06:56:55.965Z,100628.57
2019-05-30T06:59:41.633Z,100635.08
2019-05-30T07:02:13.391Z,100635.42
2019-05-30T07:04:51.808Z,100634.63
2019-05-30T07:07:19.477Z,100634.97
2019-05-30T07:09:55.674Z,100635.65
2019-05-30T07:12:31.431Z,100641.93
2019-05-30T07:15:07.477Z,100633.22
2019-05-30T07:17:56.248Z,100642.80
2019-05-30T07:20:20.559Z,100645.36
2019-05-30T07:23:00.756Z,100639.56
2019-05-30T07:25:35.028Z,100637.86
2019-05-30T07:28:07.620Z,100634.02
2019-05-30T07:30:43.547Z,100640.07
2019-05-30T07:33:17.870Z,100635.74
2019-05-30T07:35:50.373Z,100627.74
2019-05-30T07:38:22.265Z,100634.92
2019-05-30T07:40:54.007Z,100639.53
2019-05-30T07:43:29.054Z,100637.23
2019-05-30T07:46:01.609Z,100636.05
2019-05-30T07:48:34.342Z,100634.05
2019-05-30T07:51:06.131Z,100629.95
2019-05-30T07:53:39.070Z,100631.30
2019-05-30T07:56:11.112Z,100629.21
2019-05-30T07:58:42.798Z,100626.48
2019-05-30T08:01:14.892Z,100622.75
2019-05-30T08:03:46.697Z,100619.90
2019-05-30T08:06:18.682Z,100624.88
2019-05-30T08:08:52.498Z,100628.52
2019-05-30T08:11:24.228Z,100625.02
2019-05-30T08:13:56.020Z,100635.37
2019-05-30T08:16:29.093Z,100631.08
2019-05-30T08:19:00.971Z,100625.73
2019-05-30T08:21:34.620Z,100629.36
2019-05-30T08:24:06.479Z,100587.38
2019-05-30T08:26:40.715Z,100622.44
2019-05-30T08:29:12.487Z,100624.42
2019-05-30T08:31:48.415Z,100624.20
2019-05-30T08:34:22.039Z,100620.46
2019-05-30T08:36:53.825Z,100621.06
2019-05-30T08:39:25.579Z,100621.06
2019-05-30T08:41:57.365Z,100626.43
2019-05-30T08:44:30.062Z,100613.74
2019-05-30T08:47:01.860Z,100624.62
2019-05-30T08:49:34.027Z,100621.64
2019-05-30T08:52:06.121Z,100627.84
2019-05-30T08:54:38.994Z,100609.61
2019-05-30T08:57:10.716Z,100616.66
2019-05-30T08:59:44.934Z,100617.53
2019-05-30T09:02:17.881Z,100611.61
2019-05-30T09:04:50.808Z,100616.80
2019-05-30T09:07:22.715Z,100620.46
2019-05-30T09:09:55.584Z,100619.58
2019-05-30T09:12:27.487Z,100618.17
2019-05-30T09:14:59.570Z,100617.44
2019-05-30T09:17:33.365Z,100611.18
2019-05-30T09:20:05.957Z,100608.66
2019-05-30T09:22:39.618Z,100604.26
2019-05-30T09:25:13.034Z,100604.22
2019-05-30T09:27:46.639Z,100600.83
2019-05-30T09:30:20.539Z,100596.53
2019-05-30T09:32:52.280Z,100599.10
2019-05-30T09:35:24.036Z,100600.33
2019-05-30T09:38:01.040Z,100599.49
2019-05-30T09:40:33.126Z,100595.16
2019-05-30T09:43:09.110Z,100597.20
2019-05-30T09:45:42.310Z,100598.91
2019-05-30T09:48:14.637Z,100592.42
2019-05-30T09:50:48.740Z,100598.02
2019-05-30T09:53:22.473Z,100600.92
2019-05-30T09:55:54.238Z,100595.28
2019-05-30T09:58:26.027Z,100597.83
2019-05-30T10:00:57.801Z,100600.73
2019-05-30T10:03:30.696Z,100599.09
2019-05-30T10:06:05.512Z,100593.62
2019-05-30T10:08:39.136Z,100565.27
2019-05-30T10:11:11.293Z,100599.50
2019-05-30T10:13:49.775Z,100589.73
2019-05-30T10:16:22.900Z,100586.46
2019-05-30T10:18:57.507Z,100589.59
2019-05-30T10:21:34.569Z,100591.65
2019-05-30T10:24:08.246Z,100589.05
2019-05-30T10:26:46.087Z,100591.02
2019-05-30T10:29:19.567Z,100588.43
2019-05-30T10:31:53.388Z,100584.65
2019-05-30T10:34:26.535Z,100578.43
2019-05-30T10:36:58.333Z,100585.22
2019-05-30T10:39:30.105Z,100579.81
2019-05-30T10:42:01.994Z,100579.36
2019-05-30T10:44:37.187Z,100572.75
2019-05-30T10:47:09.358Z,100577.90
2019-05-30T10:49:41.189Z,100583.30
2019-05-30T10:52:13.763Z,100577.62
2019-05-30T10:54:47.925Z,100582.19
2019-05-30T10:57:21.702Z,100572.13
2019-05-30T10:59:54.650Z,100568.96
2019-05-30T11:02:26.478Z,100568.56
2019-05-30T11:04:58.333Z,100572.16
2019-05-30T11:07:55.076Z,100565.70
2019-05-30T11:10:25.434Z,100571.66
2019-05-30T11:13:05.457Z,100569.50
2019-05-30T11:15:30.890Z,100566.64
2019-05-30T11:18:02.922Z,100569.58
2019-05-30T11:20:34.684Z,100562.76
2019-05-30T11:23:06.620Z,100578.05
2019-05-30T11:25:38.645Z,100566.56
2019-05-30T11:28:10.879Z,100566.66
2019-05-30T11:30:43.230Z,100565.20
2019-05-30T11:33:15.037Z,100561.36
2019-05-30T11:35:46.808Z,100562.27
2019-05-30T11:38:18.520Z,100562.47
2019-05-30T11:40:51.361Z,100550.55
2019-05-30T11:43:23.306Z,100561.02
2019-05-30T11:45:55.979Z,100562.72
2019-05-30T11:48:27.742Z,100554.53
2019-05-30T11:51:00.036Z,100553.22
2019-05-30T11:53:32.204Z,100550.78
2019-05-30T11:56:04.040Z,100549.95
2019-05-30T11:58:35.769Z,100546.66
2019-05-30T12:01:09.280Z,100544.16
2019-05-30T12:03:41.122Z,100539.73
2019-05-30T12:06:12.989Z,100538.63
2019-05-30T12:08:44.756Z,100540.83
2019-05-30T12:11:16.628Z,100533.12
2019-05-30T12:13:48.363Z,100538.23
2019-05-30T12:16:20.219Z,100536.20
2019-05-30T12:18:53.959Z,100530.29
2019-05-30T12:21:25.768Z,100523.43
2019-05-30T12:23:58.171Z,100519.47
2019-05-30T12:26:33.975Z,100521.19
2019-05-30T12:29:05.330Z,100523.47
2019-05-30T12:31:39.560Z,100520.84
2019-05-30T12:34:14.471Z,100506.11
2019-05-30T12:36:46.746Z,100509.61
2019-05-30T12:39:42.457Z,100506.79
2019-05-30T12:42:14.266Z,100504.46
2019-05-30T12:44:46.119Z,100506.16
2019-05-30T12:47:17.945Z,100505.20
2019-05-30T12:49:49.742Z,100500.47
2019-05-30T12:52:21.679Z,100500.98
2019-05-30T12:54:54.455Z,100494.79
2019-05-30T12:57:26.803Z,100489.91
2019-05-30T13:00:00.951Z,100494.06
2019-05-30T13:02:34.710Z,100488.35
2019-05-30T13:05:07.192Z,100487.41
2019-05-30T13:07:39.261Z,100487.61
2019-05-30T13:10:13.322Z,100489.91
2019-05-30T13:12:44.755Z,100480.62
2019-05-30T13:15:16.508Z,100476.35
2019-05-30T13:17:48.468Z,100479.84
2019-05-30T13:20:20.214Z,100473.61
2019-05-30T13:22:51.992Z,100473.89
2019-05-30T13:25:24.778Z,100470.63
2019-05-30T13:28:01.966Z,100464.66
2019-05-30T13:30:32.722Z,100453.48
2019-05-30T13:33:04.922Z,100459.57
2019-05-30T13:35:36.802Z,100466.23
2019-05-30T13:38:09.661Z,100453.66
2019-05-30T13:40:41.419Z,100451.42
2019-05-30T13:43:13.222Z,100453.44
2019-05-30T13:45:45.223Z,100451.05
2019-05-30T13:48:18.427Z,100443.33
2019-05-30T13:50:51.306Z,100440.40
2019-05-30T13:53:23.018Z,100438.00
2019-05-30T13:55:56.638Z,100431.52
2019-05-30T13:58:28.423Z,100429.80
2019-05-30T14:01:11.516Z,100432.17
2019-05-30T14:03:39.145Z,100423.09
2019-05-30T14:06:11.586Z,100423.91
2019-05-30T14:08:43.724Z,100426.50
2019-05-30T14:11:15.445Z,100419.00
2019-05-30T14:13:47.295Z,100417.02
2019-05-30T14:16:19.409Z,100414.37
2019-05-30T14:18:51.225Z,100420.17
2019-05-30T14:21:25.364Z,100415.03
2019-05-30T14:23:57.136Z,100416.63
2019-05-30T14:26:28.905Z,100417.40
2019-05-30T14:29:02.275Z,100412.33
2019-05-30T14:31:36.102Z,100406.13
2019-05-30T14:34:08.094Z,100408.22
2019-05-30T14:36:39.839Z,100405.99
2019-05-30T14:39:13.464Z,100404.38
2019-05-30T14:41:45.790Z,100396.83
2019-05-30T14:44:17.552Z,100400.89
2019-05-30T14:46:49.360Z,100401.45
2019-05-30T14:49:21.176Z,100395.64
2019-05-30T14:51:52.882Z,100393.41
2019-05-30T14:54:24.653Z,100392.77
2019-05-30T14:56:56.442Z,100395.40
2019-05-30T14:59:28.338Z,100390.06
2019-05-30T15:02:00.151Z,100392.33
2019-05-30T15:04:31.935Z,100386.05
2019-05-30T15:07:03.683Z,100382.08
2019-05-30T15:09:36.386Z,100382.59
2019-05-30T15:12:08.711Z,100377.17
2019-05-30T15:14:40.531Z,100373.24
2019-05-30T15:17:12.633Z,100372.72
2019-05-30T15:19:44.385Z,100374.28
2019-05-30T15:22:18.518Z,100372.70
2019-05-30T15:24:52.198Z,100369.55
2019-05-30T15:27:25.666Z,100365.71
2019-05-30T15:29:57.444Z,100365.53
2019-05-30T15:32:29.217Z,100358.10
2019-05-30T15:35:01.051Z,100358.19
2019-05-30T15:37:32.765Z,100354.08
2019-05-30T15:40:06.717Z,100343.52
2019-05-30T15:42:38.661Z,100348.13
2019-05-30T15:45:11.750Z,100341.65
2019-05-30T15:47:43.653Z,100339.53
2019-05-30T15:50:17.249Z,100331.47
2019-05-30T15:52:48.971Z,100333.34
2019-05-30T15:55:23.152Z,100333.70
2019-05-30T15:57:54.230Z,100330.64
2019-05-30T16:00:27.531Z,100323.61
2019-05-30T16:02:59.304Z,100321.89
2019-05-30T16:05:31.077Z,100315.89
2019-05-30T16:08:02.905Z,100326.39
2019-05-30T16:10:36.745Z,100326.17
2019-05-30T16:13:09.235Z,100321.07
2019-05-30T16:15:44.214Z,100317.42
2019-05-30T16:18:15.871Z,100309.61
2019-05-30T16:20:48.100Z,100309.47
2019-05-30T16:23:20.445Z,100308.89
2019-05-30T16:25:52.310Z,100307.34
2019-05-30T16:28:24.145Z,100301.39
2019-05-30T16:30:55.993Z,100297.66
2019-05-30T16:33:27.768Z,100293.07
2019-05-30T16:35:59.833Z,100292.70
2019-05-30T16:38:31.655Z,100293.77
2019-05-30T16:41:03.410Z,100289.16
2019-05-30T16:43:35.130Z,100284.95
2019-05-30T16:46:06.906Z,100286.38
2019-05-30T16:48:39.054Z,100280.76
2019-05-30T16:51:10.781Z,100274.05
2019-05-30T16:53:42.936Z,100270.64
2019-05-30T16:56:17.319Z,100272.33
2019-05-30T16:58:50.995Z,100264.95
2019-05-30T17:01:24.179Z,100261.23
2019-05-30T17:03:56.068Z,100258.34
2019-05-30T17:06:29.192Z,100257.34
2019-05-30T17:09:01.105Z,100263.63
2019-05-30T17:11:35.054Z,100259.75
2019-05-30T17:14:08.543Z,100253.72
2019-05-30T17:16:41.329Z,100253.52
2019-05-30T17:19:13.619Z,100249.98
2019-05-30T17:21:45.467Z,100243.36
2019-05-30T17:24:17.200Z,100238.83
2019-05-30T17:26:51.926Z,100240.63
2019-05-30T17:29:23.569Z,100237.80
2019-05-30T17:31:55.639Z,100236.14
2019-05-30T17:34:29.122Z,100236.90
2019-05-30T17:37:01.330Z,100230.73
2019-05-30T17:39:33.140Z,100229.31
2019-05-30T17:42:07.190Z,100229.82
2019-05-30T17:44:38.963Z,100231.80
2019-05-30T17:47:12.137Z,100227.98
2019-05-30T17:49:44.001Z,100223.59
2019-05-30T17:52:17.044Z,100225.81
2019-05-30T17:54:48.890Z,100226.28
2019-05-30T17:57:21.953Z,100223.45
2019-05-30T17:59:53.753Z,100218.92
2019-05-30T18:02:26.622Z,100218.27
2019-05-30T18:04:58.385Z,100210.84
2019-05-30T18:07:31.194Z,100214.19
2019-05-30T18:10:03.160Z,100212.78
2019-05-30T18:12:38.540Z,100209.06
2019-05-30T18:15:10.704Z,100210.14
2019-05-30T18:17:43.289Z,100209.43
2019-05-30T18:20:17.040Z,100210.74
2019-05-30T18:22:48.783Z,100211.50
2019-05-30T18:25:21.605Z,100211.95
2019-05-30T18:27:54.338Z,100220.91
2019-05-30T18:30:39.384Z,100216.66
2019-05-30T18:33:12.471Z,100226.66
2019-05-30T18:35:44.707Z,100230.04
2019-05-30T18:38:16.646Z,100234.55
2019-05-30T18:40:49.701Z,100237.05
2019-05-30T18:43:23.184Z,100239.38
2019-05-30T18:45:55.122Z,100242.88
2019-05-30T18:48:27.329Z,100248.39
2019-05-30T18:51:10.114Z,100249.98
2019-05-30T18:53:38.965Z,100243.87
2019-05-30T18:56:12.317Z,100255.86
2019-05-30T18:58:46.162Z,100256.87
2019-05-30T19:01:17.752Z,100263.55
2019-05-30T19:03:49.626Z,100269.64
2019-05-30T19:06:22.456Z,100270.52
2019-05-30T19:08:54.763Z,100270.87
2019-05-30T19:11:30.640Z,100273.00
2019-05-30T19:14:02.797Z,100273.56
2019-05-30T19:16:37.147Z,100270.14
2019-05-30T19:19:09.226Z,100275.94
2019-05-30T19:21:41.010Z,100274.94
2019-05-30T19:24:15.661Z,100274.94
2019-05-30T19:26:47.696Z,100279.54
2019-05-30T19:29:19.626Z,100282.25
2019-05-30T19:31:57.307Z,100287.57
2019-05-30T19:34:30.750Z,100285.23
2019-05-30T19:37:02.593Z,100285.70
2019-05-30T19:39:36.141Z,100288.84
2019-05-30T19:42:08.165Z,100277.71
2019-05-30T19:44:41.594Z,100288.33
2019-05-30T19:47:13.806Z,100288.20
2019-05-30T19:49:46.097Z,100290.28
2019-05-30T19:52:17.911Z,100281.98
2019-05-30T19:54:49.767Z,100284.58
2019-05-30T19:57:21.661Z,100285.34
2019-05-30T19:59:57.239Z,100287.84
2019-05-30T20:02:29.858Z,100295.60
2019-05-30T20:05:01.810Z,100290.69
2019-05-30T20:07:34.578Z,100289.45
2019-05-30T20:10:07.178Z,100297.48
2019-05-30T20:12:39.140Z,100299.16
2019-05-30T20:15:11.245Z,100304.83
2019-05-30T20:17:43.089Z,100300.64
2019-05-30T20:20:14.841Z,100313.89
2019-05-30T20:22:46.647Z,100310.14
2019-05-30T20:25:19.306Z,100315.32
2019-05-30T20:27:51.287Z,100317.27
2019-05-30T20:30:26.095Z,100319.84
2019-05-30T20:32:57.855Z,100319.05
2019-05-30T20:35:29.610Z,100317.04
2019-05-30T20:38:01.700Z,100316.72
2019-05-30T20:40:34.818Z,100323.02
2019-05-30T20:43:08.021Z,100321.89
2019-05-30T20:45:45.688Z,100322.73
2019-05-30T20:48:13.375Z,100327.82
2019-05-30T20:50:47.422Z,100331.70
2019-05-30T20:53:20.545Z,100337.80
2019-05-30T20:55:52.827Z,100331.36
2019-05-30T20:58:25.117Z,100336.59
2019-05-30T21:00:57.267Z,100333.20
2019-05-30T21:03:35.579Z,100334.83
2019-05-30T21:06:07.007Z,100340.34
2019-05-30T21:08:39.058Z,100341.52
2019-05-30T21:11:12.572Z,100346.25
2019-05-30T21:13:44.392Z,100349.81
2019-05-30T21:16:16.237Z,100352.16
2019-05-30T21:18:48.420Z,100361.12
2019-05-30T21:21:20.309Z,100357.74
2019-05-30T21:23:52.234Z,100357.56
2019-05-30T21:26:25.492Z,100359.59
2019-05-30T21:28:59.104Z,100364.23
2019-05-30T21:32:13.173Z,100366.70
2019-05-30T21:34:48.431Z,100366.63
2019-05-30T21:37:20.570Z,100366.69
2019-05-30T21:39:53.571Z,100365.94
2019-05-30T21:42:25.496Z,100368.09
2019-05-30T21:44:59.190Z,100365.06
2019-05-30T21:47:31.280Z,100371.91
2019-05-30T21:50:03.243Z,100377.13
2019-05-30T21:52:35.240Z,100373.09
2019-05-30T21:55:07.796Z,100376.59
2019-05-30T21:57:42.266Z,100376.23
2019-05-30T22:00:19.449Z,100373.80
2019-05-30T22:02:57.374Z,100377.11
2019-05-30T22:05:29.499Z,100377.88
2019-05-30T22:08:02.063Z,100373.41
2019-05-30T22:10:33.964Z,100380.05
2019-05-30T22:13:09.443Z,100378.50
2019-05-30T22:15:39.584Z,100383.30
2019-05-30T22:18:13.559Z,100383.63
2019-05-30T22:20:45.871Z,100385.48
2019-05-30T22:23:17.894Z,100387.73
2019-05-30T22:25:50.347Z,100386.25
2019-05-30T22:28:22.416Z,100385.15
2019-05-30T22:30:54.339Z,100382.39
2019-05-30T22:33:26.880Z,100384.51
2019-05-30T22:35:58.755Z,100385.44
2019-05-30T22:38:30.510Z,100381.44
2019-05-30T22:41:03.606Z,100388.77
2019-05-30T22:43:37.591Z,100386.64
2019-05-30T22:46:37.345Z,100382.06
2019-05-30T22:49:12.277Z,100382.34
2019-05-30T22:51:48.965Z,100383.37
2019-05-30T22:54:36.015Z,100381.11
2019-05-30T22:57:52.883Z,100379.63
2019-05-30T23:00:27.253Z,100372.87
2019-05-30T23:02:59.101Z,100377.94
2019-05-30T23:05:31.074Z,100372.73
2019-05-30T23:08:02.891Z,100378.70
2019-05-30T23:10:34.787Z,100375.25
2019-05-30T23:13:08.000Z,100375.05
2019-05-30T23:15:39.804Z,100371.22
2019-05-30T23:18:11.912Z,100369.09
2019-05-30T23:20:43.910Z,100368.38
2019-05-30T23:23:15.659Z,100369.18
2019-05-30T23:25:47.841Z,100363.80
2019-05-30T23:28:42.412Z,100372.52
2019-05-30T23:31:17.790Z,100363.59
2019-05-30T23:33:50.276Z,100364.50
2019-05-30T23:36:23.679Z,100368.53
2019-05-30T23:38:56.810Z,100374.29
2019-05-30T23:41:30.323Z,100368.48
2019-05-30T23:44:11.889Z,100371.11
2019-05-30T23:46:43.423Z,100375.33
2019-05-30T23:49:20.388Z,100371.43
2019-05-30T23:52:23.906Z,100370.25
2019-05-30T23:54:56.309Z,100365.81
2019-05-30T23:57:28.451Z,100357.34
